createdAt,value
2023-11-10T00:01:24.379Z,4.05
2023-11-10T00:04:09.605Z,4.23
2023-11-10T00:06:54.849Z,4.11
2023-11-10T00:09:39.874Z,3.88
2023-11-10T00:12:24.922Z,3.77
2023-11-10T00:15:10.027Z,3.72
2023-11-10T00:17:54.633Z,3.28
2023-11-10T00:20:39.586Z,3.21
2023-11-10T00:23:24.658Z,3.29
2023-11-10T00:26:09.655Z,3.44
2023-11-10T00:28:54.617Z,3.18
2023-11-10T00:31:39.655Z,3.26
2023-11-10T00:34:24.586Z,3.38
2023-11-10T00:37:09.589Z,3.46
2023-11-10T00:39:54.479Z,3.36
2023-11-10T00:42:39.542Z,3.87
2023-11-10T00:45:24.414Z,4.20
2023-11-10T00:48:09.539Z,4.13
2023-11-10T00:50:54.437Z,4.23
2023-11-10T00:53:39.612Z,4.21
2023-11-10T00:56:24.744Z,3.96
2023-11-10T00:59:09.657Z,3.91
2023-11-10T01:01:54.731Z,4.21
2023-11-10T01:04:39.584Z,4.48
2023-11-10T01:07:24.657Z,4.05
2023-11-10T01:10:09.788Z,4.38
2023-11-10T01:12:54.664Z,4.34
2023-11-10T01:15:39.528Z,4.50
2023-11-10T01:18:24.477Z,4.34
2023-11-10T01:21:09.548Z,4.31
2023-11-10T01:23:54.445Z,4.38
2023-11-10T01:26:39.419Z,4.32
2023-11-10T01:29:24.251Z,4.35
2023-11-10T01:32:09.275Z,4.29
2023-11-10T01:34:54.196Z,4.23
2023-11-10T01:37:38.987Z,4.18
2023-11-10T01:40:24.052Z,4.06
2023-11-10T01:43:09.054Z,4.18
2023-11-10T01:45:53.964Z,4.42
2023-11-10T01:48:38.877Z,4.40
2023-11-10T01:51:23.833Z,4.16
2023-11-10T01:54:08.809Z,3.94
2023-11-10T01:56:53.698Z,4.18
2023-11-10T01:59:38.856Z,4.23
2023-11-10T02:02:23.864Z,4.30
2023-11-10T02:05:08.862Z,4.08
2023-11-10T02:07:53.781Z,3.14
2023-11-10T02:10:38.779Z,3.46
2023-11-10T02:13:23.733Z,3.38
2023-11-10T02:16:08.657Z,4.15
2023-11-10T02:18:53.602Z,4.36
2023-11-10T02:21:38.638Z,4.48
2023-11-10T02:24:23.594Z,4.59
2023-11-10T02:27:08.396Z,4.47
2023-11-10T02:29:53.477Z,4.41
2023-11-10T02:32:38.542Z,4.78
2023-11-10T02:35:23.490Z,5.06
2023-11-10T02:38:08.449Z,5.03
2023-11-10T02:40:53.513Z,5.10
2023-11-10T02:43:38.585Z,5.16
2023-11-10T02:46:23.424Z,5.15
2023-11-10T02:49:08.388Z,5.24
2023-11-10T02:51:53.335Z,5.10
2023-11-10T02:54:38.346Z,5.11
2023-11-10T02:57:23.491Z,5.15
2023-11-10T03:00:08.222Z,5.13
2023-11-10T03:02:53.173Z,4.91
2023-11-10T03:05:38.223Z,5.12
2023-11-10T03:08:23.231Z,5.20
2023-11-10T03:11:08.141Z,5.05
2023-11-10T03:13:53.178Z,5.24
2023-11-10T03:16:38.157Z,5.38
2023-11-10T03:19:23.113Z,4.82
2023-11-10T03:22:07.971Z,4.93
2023-11-10T03:24:52.821Z,4.73
2023-11-10T03:27:37.888Z,4.72
2023-11-10T03:30:22.941Z,5.01
2023-11-10T03:33:07.771Z,5.06
2023-11-10T03:35:52.609Z,5.04
2023-11-10T03:38:37.732Z,4.90
2023-11-10T03:41:22.690Z,5.26
2023-11-10T03:44:07.724Z,5.10
2023-11-10T03:46:52.592Z,5.23
2023-11-10T03:49:37.474Z,5.14
2023-11-10T03:52:22.313Z,4.90
2023-11-10T03:55:07.169Z,5.31
2023-11-10T03:57:52.070Z,5.49
2023-11-10T04:00:45.726Z,5.31
2023-11-10T04:03:33.578Z,5.41
2023-11-10T04:06:25.867Z,5.52
2023-11-10T04:09:16.184Z,5.52
2023-11-10T04:12:01.121Z,5.42
2023-11-10T04:14:46.078Z,5.45
2023-11-10T04:17:31.115Z,5.48
2023-11-10T04:20:15.944Z,5.54
2023-11-10T04:23:00.838Z,5.61
2023-11-10T04:25:45.875Z,5.55
2023-11-10T04:28:30.801Z,5.64
2023-11-10T04:31:15.991Z,5.55
2023-11-10T04:34:00.957Z,5.50
2023-11-10T04:36:46.042Z,5.54
2023-11-10T04:39:30.938Z,5.58
2023-11-10T04:42:15.952Z,5.50
2023-11-10T04:45:01.008Z,5.51
2023-11-10T04:47:45.955Z,5.56
2023-11-10T04:50:30.978Z,5.47
2023-11-10T04:53:15.928Z,5.50
2023-11-10T04:56:00.893Z,5.44
2023-11-10T04:58:45.700Z,5.33
2023-11-10T05:01:30.696Z,5.31
2023-11-10T05:04:15.687Z,5.10
2023-11-10T05:07:00.500Z,5.21
2023-11-10T05:09:45.686Z,5.39
2023-11-10T05:12:30.677Z,4.89
2023-11-10T05:15:15.656Z,5.19
2023-11-10T05:18:00.662Z,5.37
2023-11-10T05:20:45.636Z,5.32
2023-11-10T05:23:30.565Z,5.36
2023-11-10T05:26:15.639Z,5.37
2023-11-10T05:29:00.729Z,5.36
2023-11-10T05:31:45.492Z,5.19
2023-11-10T05:34:30.483Z,5.11
2023-11-10T05:37:15.331Z,5.20
2023-11-10T05:40:00.340Z,5.46
2023-11-10T05:42:45.235Z,5.54
2023-11-10T05:45:30.155Z,5.45
2023-11-10T05:48:15.182Z,5.51
2023-11-10T05:50:59.998Z,5.40
2023-11-10T05:53:45.157Z,5.41
2023-11-10T05:56:30.142Z,5.42
2023-11-10T05:59:15.158Z,5.39
2023-11-10T06:02:00.035Z,5.52
2023-11-10T06:04:45.150Z,5.65
2023-11-10T06:07:29.963Z,5.53
2023-11-10T06:10:15.064Z,5.60
2023-11-10T06:13:00.039Z,5.60
2023-11-10T06:15:44.979Z,5.56
2023-11-10T06:18:30.082Z,5.53
2023-11-10T06:21:15.020Z,5.44
2023-11-10T06:23:59.814Z,5.44
2023-11-10T06:26:44.791Z,5.30
2023-11-10T06:29:29.880Z,5.10
2023-11-10T06:32:14.766Z,5.04
2023-11-10T06:34:59.898Z,4.37
2023-11-10T06:37:44.920Z,4.65
2023-11-10T06:40:30.743Z,3.77
2023-11-10T06:43:15.484Z,4.12
2023-11-10T06:46:00.499Z,4.26
2023-11-10T06:48:45.608Z,4.67
2023-11-10T06:51:30.452Z,4.28
2023-11-10T06:54:15.474Z,4.28
2023-11-10T06:57:00.473Z,4.55
2023-11-10T06:59:45.382Z,4.78
2023-11-10T07:02:30.391Z,4.84
2023-11-10T07:05:15.343Z,4.65
2023-11-10T07:08:00.469Z,4.52
2023-11-10T07:10:46.245Z,4.54
2023-11-10T07:13:31.571Z,4.68
2023-11-10T07:16:16.794Z,4.57
2023-11-10T07:19:01.830Z,4.26
2023-11-10T07:21:46.782Z,4.65
2023-11-10T07:24:31.772Z,4.70
2023-11-10T07:27:16.873Z,4.66
2023-11-10T07:30:01.858Z,4.43
2023-11-10T07:32:46.933Z,3.32
2023-11-10T07:35:31.895Z,3.06
2023-11-10T07:38:16.928Z,2.86
2023-11-10T07:41:02.013Z,2.73
2023-11-10T07:43:46.936Z,2.81
2023-11-10T07:46:32.091Z,3.06
2023-11-10T07:49:16.972Z,3.45
2023-11-10T07:52:02.018Z,3.80
2023-11-10T07:54:57.669Z,4.04
2023-11-10T07:57:44.828Z,4.14
2023-11-10T08:00:29.482Z,4.38
2023-11-10T08:03:14.489Z,4.39
2023-11-10T08:05:59.491Z,4.45
2023-11-10T08:08:44.479Z,4.53
2023-11-10T08:11:32.398Z,4.50
2023-11-10T08:14:19.117Z,3.89
2023-11-10T08:17:04.017Z,3.66
2023-11-10T08:19:49.077Z,3.81
2023-11-10T08:22:34.107Z,3.44
2023-11-10T08:25:19.199Z,3.81
2023-11-10T08:28:04.317Z,4.03
2023-11-10T08:30:49.416Z,4.08
2023-11-10T08:33:34.315Z,4.12
2023-11-10T08:36:19.365Z,4.39
2023-11-10T08:39:04.293Z,3.94
2023-11-10T08:41:49.456Z,3.95
2023-11-10T08:44:34.491Z,4.08
2023-11-10T08:47:19.463Z,4.04
2023-11-10T08:50:04.470Z,4.26
2023-11-10T08:52:49.367Z,4.57
2023-11-10T08:55:34.388Z,4.64
2023-11-10T08:58:19.465Z,4.54
2023-11-10T09:01:04.441Z,4.50
2023-11-10T09:03:49.394Z,4.55
2023-11-10T09:06:34.281Z,4.72
2023-11-10T09:09:19.370Z,4.77
2023-11-10T09:12:04.249Z,4.84
2023-11-10T09:14:49.349Z,4.34
2023-11-10T09:17:34.244Z,4.64
2023-11-10T09:20:19.303Z,4.59
2023-11-10T09:23:04.354Z,4.69
2023-11-10T09:25:49.417Z,4.60
2023-11-10T09:28:34.514Z,4.74
2023-11-10T09:31:19.422Z,4.71
2023-11-10T09:34:06.063Z,5.02
2023-11-10T09:36:50.931Z,5.19
2023-11-10T09:39:35.923Z,5.19
2023-11-10T09:42:20.840Z,5.19
2023-11-10T09:45:05.823Z,5.22
2023-11-10T09:47:51.068Z,5.22
2023-11-10T09:50:35.996Z,5.55
2023-11-10T09:53:21.085Z,6.04
2023-11-10T09:56:06.023Z,6.46
2023-11-10T09:58:51.020Z,6.79
2023-11-10T10:01:35.932Z,6.76
2023-11-10T10:04:20.982Z,6.23
2023-11-10T10:07:06.033Z,6.59
2023-11-10T10:09:50.865Z,5.22
2023-11-10T10:12:35.847Z,5.65
2023-11-10T10:15:21.942Z,5.23
2023-11-10T10:18:06.909Z,5.50
2023-11-10T10:20:51.915Z,5.70
2023-11-10T10:23:36.884Z,5.98
2023-11-10T10:26:21.785Z,6.08
2023-11-10T10:29:06.741Z,6.16
2023-11-10T10:31:51.791Z,6.24
2023-11-10T10:34:36.507Z,6.21
2023-11-10T10:37:21.337Z,5.59
2023-11-10T10:40:06.264Z,6.09
2023-11-10T10:42:51.270Z,6.51
2023-11-10T10:45:36.256Z,6.61
2023-11-10T10:48:21.065Z,7.07
2023-11-10T10:51:06.035Z,7.16
2023-11-10T10:53:50.968Z,7.47
2023-11-10T10:56:44.173Z,7.69
2023-11-10T10:59:30.647Z,8.12
2023-11-10T11:02:15.615Z,8.35
2023-11-10T11:05:00.654Z,7.69
2023-11-10T11:07:45.473Z,7.24
2023-11-10T11:10:30.429Z,7.44
2023-11-10T11:13:15.406Z,7.61
2023-11-10T11:16:00.401Z,7.38
2023-11-10T11:18:45.264Z,7.55
2023-11-10T11:21:30.297Z,7.76
2023-11-10T11:24:15.296Z,7.95
2023-11-10T11:27:00.244Z,7.90
2023-11-10T11:29:45.132Z,7.82
2023-11-10T11:32:30.025Z,7.49
2023-11-10T11:35:14.964Z,7.39
2023-11-10T11:38:00.054Z,7.20
2023-11-10T11:40:45.043Z,7.36
2023-11-10T11:43:29.993Z,7.50
2023-11-10T11:46:14.937Z,7.61
2023-11-10T11:48:59.750Z,7.51
2023-11-10T11:51:44.650Z,7.15
2023-11-10T11:54:29.755Z,6.93
2023-11-10T11:57:14.652Z,7.19
2023-11-10T11:59:59.790Z,6.97
2023-11-10T12:02:44.906Z,6.62
2023-11-10T12:05:29.785Z,6.90
2023-11-10T12:08:14.674Z,6.28
2023-11-10T12:10:59.790Z,6.30
2023-11-10T12:13:44.790Z,6.89
2023-11-10T12:19:19.312Z,7.78
2023-11-10T12:22:04.868Z,7.89
2023-11-10T12:24:49.907Z,8.03
2023-11-10T12:27:34.767Z,8.41
2023-11-10T12:30:19.726Z,8.35
2023-11-10T12:33:04.729Z,7.79
2023-11-10T12:35:49.660Z,6.47
2023-11-10T12:38:34.627Z,6.11
2023-11-10T12:41:19.642Z,6.92
2023-11-10T12:44:04.626Z,7.06
2023-11-10T12:46:49.661Z,6.84
2023-11-10T12:49:34.482Z,6.62
2023-11-10T12:52:19.547Z,7.04
2023-11-10T12:55:04.592Z,6.30
2023-11-10T12:57:49.352Z,6.70
2023-11-10T13:00:34.363Z,6.94
2023-11-10T13:03:19.619Z,6.99
2023-11-10T13:06:04.475Z,5.59
2023-11-10T13:08:49.319Z,5.83
2023-11-10T13:11:34.372Z,6.27
2023-11-10T13:14:19.363Z,6.50
2023-11-10T13:17:04.329Z,6.76
2023-11-10T13:19:49.412Z,6.44
2023-11-10T13:22:34.312Z,6.60
2023-11-10T13:25:19.445Z,6.66
2023-11-10T13:28:04.391Z,6.78
2023-11-10T13:30:49.457Z,6.85
2023-11-10T13:33:34.368Z,6.83
2023-11-10T13:36:19.409Z,6.58
2023-11-10T13:39:04.352Z,6.71
2023-11-10T13:41:50.170Z,6.83
2023-11-10T13:44:35.469Z,6.96
2023-11-10T13:47:20.402Z,7.00
2023-11-10T13:50:05.414Z,6.60
2023-11-10T13:52:50.454Z,6.98
2023-11-10T13:55:35.524Z,6.93
2023-11-10T13:58:20.590Z,6.74
2023-11-10T14:01:05.500Z,6.91
2023-11-10T14:03:50.750Z,6.89
2023-11-10T14:06:35.440Z,7.02
2023-11-10T14:09:20.407Z,6.32
2023-11-10T14:12:05.281Z,6.64
2023-11-10T14:14:50.388Z,6.24
2023-11-10T14:17:35.353Z,6.44
2023-11-10T14:20:20.172Z,6.35
2023-11-10T14:23:05.082Z,6.47
2023-11-10T14:25:50.063Z,6.70
2023-11-10T14:28:35.222Z,6.63
2023-11-10T14:31:20.242Z,6.85
2023-11-10T14:34:05.529Z,7.02
2023-11-10T14:36:50.445Z,7.06
2023-11-10T14:39:35.577Z,6.53
2023-11-10T14:42:20.592Z,6.54
2023-11-10T14:45:05.543Z,6.84
2023-11-10T14:47:50.508Z,6.83
2023-11-10T14:50:35.537Z,7.04
2023-11-10T14:53:20.445Z,6.89
2023-11-10T14:56:05.409Z,6.71
2023-11-10T14:58:50.479Z,6.51
2023-11-10T15:01:35.368Z,6.40
2023-11-10T15:04:20.399Z,6.27
2023-11-10T15:07:05.360Z,6.13
2023-11-10T15:09:50.323Z,5.92
2023-11-10T15:12:35.450Z,5.77
2023-11-10T15:15:20.248Z,5.55
2023-11-10T15:18:05.470Z,5.44
2023-11-10T15:20:50.292Z,5.36
2023-11-10T15:23:35.283Z,5.48
2023-11-10T15:26:20.288Z,5.20
2023-11-10T15:29:05.323Z,5.44
2023-11-10T15:31:50.471Z,5.31
2023-11-10T15:34:35.460Z,5.28
2023-11-10T15:37:20.563Z,5.37
2023-11-10T15:40:05.387Z,5.17
2023-11-10T15:42:50.452Z,5.00
2023-11-10T15:45:35.409Z,5.00
2023-11-10T15:48:20.492Z,4.76
2023-11-10T15:51:06.503Z,4.68
2023-11-10T15:53:51.471Z,4.67
2023-11-10T15:56:36.412Z,4.28
2023-11-10T15:59:21.383Z,3.94
2023-11-10T16:02:06.450Z,4.08
2023-11-10T16:04:51.238Z,4.03
2023-11-10T16:07:36.242Z,3.75
2023-11-10T16:10:23.157Z,3.82
2023-11-10T16:13:09.278Z,3.80
2023-11-10T16:15:54.253Z,3.55
2023-11-10T16:18:39.185Z,3.63
2023-11-10T16:21:24.100Z,3.47
2023-11-10T16:24:09.088Z,3.44
2023-11-10T16:26:54.000Z,3.27
2023-11-10T16:29:39.024Z,3.48
2023-11-10T16:32:23.994Z,3.58
2023-11-10T16:35:09.179Z,3.44
2023-11-10T16:37:54.145Z,3.40
2023-11-10T16:40:39.156Z,3.50
2023-11-10T16:43:23.961Z,3.18
2023-11-10T16:46:09.010Z,3.29
2023-11-10T16:48:53.867Z,3.12
2023-11-10T16:51:38.933Z,2.78
2023-11-10T16:54:23.862Z,2.57
2023-11-10T16:57:08.822Z,3.18
2023-11-10T16:59:53.926Z,3.37
2023-11-10T17:02:45.187Z,3.59
2023-11-10T17:05:31.170Z,3.55
2023-11-10T17:08:16.452Z,3.89
2023-11-10T17:11:01.462Z,3.43
2023-11-10T17:13:46.454Z,3.33
2023-11-10T17:16:31.510Z,3.05
2023-11-10T17:19:16.409Z,3.10
2023-11-10T17:22:01.329Z,3.07
2023-11-10T17:24:46.094Z,3.44
2023-11-10T17:27:31.137Z,3.29
2023-11-10T17:30:16.034Z,3.07
2023-11-10T17:33:01.022Z,3.04
2023-11-10T17:35:45.890Z,3.04
2023-11-10T17:38:30.834Z,3.57
2023-11-10T17:41:15.918Z,3.72
2023-11-10T17:44:00.888Z,4.07
2023-11-10T17:46:45.986Z,3.96
2023-11-10T17:49:30.757Z,3.73
2023-11-10T17:52:15.777Z,4.17
2023-11-10T17:55:00.720Z,3.92
2023-11-10T17:57:45.624Z,3.75
2023-11-10T18:00:30.470Z,3.68
2023-11-10T18:03:15.402Z,3.86
2023-11-10T18:06:00.895Z,4.10
2023-11-10T18:08:46.340Z,3.86
2023-11-10T18:11:31.455Z,3.62
2023-11-10T18:14:16.348Z,3.92
2023-11-10T18:17:01.415Z,3.99
2023-11-10T18:19:46.417Z,3.77
2023-11-10T18:22:31.299Z,4.34
2023-11-10T18:25:16.327Z,4.30
2023-11-10T18:28:01.276Z,4.19
2023-11-10T18:30:46.445Z,3.92
2023-11-10T18:33:31.235Z,3.96
2023-11-10T18:36:16.104Z,4.47
2023-11-10T18:39:01.000Z,4.61
2023-11-10T18:41:46.029Z,4.63
2023-11-10T18:44:30.998Z,4.63
2023-11-10T18:47:16.011Z,4.57
2023-11-10T18:50:00.990Z,4.53
2023-11-10T18:52:45.880Z,4.64
2023-11-10T18:55:30.876Z,4.65
2023-11-10T18:58:15.929Z,4.61
2023-11-10T19:01:01.053Z,4.37
2023-11-10T19:03:45.929Z,4.00
2023-11-10T19:06:30.928Z,4.10
2023-11-10T19:09:15.897Z,3.62
2023-11-10T19:12:00.753Z,3.44
2023-11-10T19:14:45.881Z,3.42
2023-11-10T19:17:30.805Z,3.35
2023-11-10T19:20:15.831Z,3.75
2023-11-10T19:23:00.639Z,3.88
2023-11-10T19:25:45.702Z,3.74
2023-11-10T19:28:30.606Z,3.58
2023-11-10T19:31:15.632Z,3.69
2023-11-10T19:34:00.648Z,4.04
2023-11-10T19:36:45.541Z,3.88
2023-11-10T19:39:30.476Z,3.71
2023-11-10T19:42:15.445Z,4.06
2023-11-10T19:45:00.530Z,4.27
2023-11-10T19:47:48.198Z,4.61
2023-11-10T19:50:34.439Z,4.40
2023-11-10T19:53:19.908Z,4.42
2023-11-10T19:56:05.221Z,3.96
2023-11-10T20:01:37.580Z,3.80
2023-11-10T20:04:22.442Z,4.34
2023-11-10T20:07:07.452Z,4.73
2023-11-10T20:09:52.308Z,4.73
2023-11-10T20:12:37.389Z,4.88
2023-11-10T20:15:22.301Z,4.80
2023-11-10T20:18:07.344Z,4.59
2023-11-10T20:20:52.290Z,4.51
2023-11-10T20:23:37.315Z,4.46
2023-11-10T20:26:22.436Z,4.47
2023-11-10T20:29:07.332Z,4.46
2023-11-10T20:31:52.320Z,4.39
2023-11-10T20:34:37.346Z,4.29
2023-11-10T20:37:22.290Z,4.10
2023-11-10T20:40:07.351Z,3.99
2023-11-10T20:42:52.356Z,3.61
2023-11-10T20:45:37.527Z,3.72
2023-11-10T20:48:22.368Z,3.82
2023-11-10T20:51:07.506Z,3.71
2023-11-10T20:53:52.367Z,3.79
2023-11-10T20:56:37.210Z,3.47
2023-11-10T20:59:22.097Z,3.49
2023-11-10T21:02:07.131Z,3.87
2023-11-10T21:04:53.908Z,4.02
2023-11-10T21:07:39.426Z,4.09
2023-11-10T21:10:24.570Z,3.82
2023-11-10T21:13:09.414Z,3.94
2023-11-10T21:15:54.338Z,4.19
2023-11-10T21:18:39.299Z,4.38
2023-11-10T21:21:24.192Z,4.31
2023-11-10T21:24:09.252Z,3.78
2023-11-10T21:26:54.178Z,3.30
2023-11-10T21:29:39.154Z,3.54
2023-11-10T21:32:24.180Z,3.49
2023-11-10T21:35:09.207Z,3.53
2023-11-10T21:37:54.207Z,3.97
2023-11-10T21:40:39.283Z,4.07
2023-11-10T21:43:24.197Z,4.27
2023-11-10T21:46:09.178Z,4.40
2023-11-10T21:48:54.182Z,4.28
2023-11-10T21:51:39.159Z,4.38
2023-11-10T21:54:24.227Z,4.20
2023-11-10T21:57:09.048Z,4.33
2023-11-10T21:59:54.069Z,4.44
2023-11-10T22:02:39.016Z,4.39
2023-11-10T22:05:24.074Z,4.35
2023-11-10T22:08:09.082Z,4.31
2023-11-10T22:10:54.027Z,4.56
2023-11-10T22:13:38.991Z,4.44
2023-11-10T22:16:23.964Z,4.51
2023-11-10T22:19:08.923Z,4.67
2023-11-10T22:21:53.708Z,4.78
2023-11-10T22:24:38.778Z,4.79
2023-11-10T22:27:23.637Z,4.80
2023-11-10T22:30:08.985Z,4.86
2023-11-10T22:32:53.745Z,4.84
2023-11-10T22:35:38.523Z,4.63
2023-11-10T22:38:23.479Z,4.42
2023-11-10T22:41:08.389Z,4.43
2023-11-10T22:43:53.418Z,4.40
2023-11-10T22:46:41.356Z,4.61
2023-11-10T22:49:26.545Z,4.57
2023-11-10T22:52:11.572Z,4.78
2023-11-10T22:54:56.425Z,4.75
2023-11-10T22:57:41.712Z,4.74
2023-11-10T23:00:28.186Z,4.61
2023-11-10T23:03:13.628Z,4.25
2023-11-10T23:05:58.446Z,4.52
2023-11-10T23:08:43.551Z,4.32
2023-11-10T23:11:28.604Z,4.44
2023-11-10T23:14:13.616Z,4.54
2023-11-10T23:16:58.660Z,4.62
2023-11-10T23:19:43.576Z,4.44
2023-11-10T23:22:28.371Z,4.43
2023-11-10T23:25:13.370Z,4.47
2023-11-10T23:27:58.456Z,4.34
2023-11-10T23:30:43.433Z,3.95
2023-11-10T23:33:28.270Z,4.33
2023-11-10T23:36:13.341Z,4.35
2023-11-10T23:38:58.269Z,4.36
2023-11-10T23:41:43.340Z,4.50
2023-11-10T23:44:28.305Z,4.45
2023-11-10T23:47:13.318Z,4.21
2023-11-10T23:49:58.228Z,4.42
2023-11-10T23:52:43.190Z,4.25
2023-11-10T23:55:28.208Z,4.01
2023-11-10T23:58:13.162Z,3.18
